sensor_id;sensor_type;location;lat;lon;timestamp;P1;durP1;ratioP1;P2;durP2;ratioP2
13463;SDS011;6804;48.774;9.174;2023-05-16T00:00:24;6.57;;;5.97;;
13463;SDS011;6804;48.774;9.174;2023-05-16T00:02:51;6.50;;;5.90;;
13463;SDS011;6804;48.774;9.174;2023-05-16T00:05:19;7.90;;;6.40;;
13463;SDS011;6804;48.774;9.174;2023-05-16T00:07:47;6.50;;;5.90;;
13463;SDS011;6804;48.774;9.174;2023-05-16T00:10:14;6.70;;;5.60;;
13463;SDS011;6804;48.774;9.174;2023-05-16T00:12:41;6.50;;;5.90;;
13463;SDS011;6804;48.774;9.174;2023-05-16T00:15:16;9.73;;;6.90;;
13463;SDS011;6804;48.774;9.174;2023-05-16T00:17:45;6.43;;;5.83;;
13463;SDS011;6804;48.774;9.174;2023-05-16T00:20:13;7.03;;;6.23;;
13463;SDS011;6804;48.774;9.174;2023-05-16T00:22:43;6.90;;;6.23;;
13463;SDS011;6804;48.774;9.174;2023-05-16T00:25:10;8.60;;;7.70;;
13463;SDS011;6804;48.774;9.174;2023-05-16T00:27:40;8.47;;;6.63;;
13463;SDS011;6804;48.774;9.174;2023-05-16T00:30:08;9.57;;;8.67;;
13463;SDS011;6804;48.774;9.174;2023-05-16T00:32:35;10.50;;;8.07;;
13463;SDS011;6804;48.774;9.174;2023-05-16T00:35:05;8.97;;;8.10;;
13463;SDS011;6804;48.774;9.174;2023-05-16T00:37:37;13.13;;;10.00;;
13463;SDS011;6804;48.774;9.174;2023-05-16T00:40:06;11.77;;;10.67;;
13463;SDS011;6804;48.774;9.174;2023-05-16T00:42:33;10.67;;;9.63;;
13463;SDS011;6804;48.774;9.174;2023-05-16T00:45:01;13.33;;;11.47;;
13463;SDS011;6804;48.774;9.174;2023-05-16T00:47:29;13.13;;;11.80;;
13463;SDS011;6804;48.774;9.174;2023-05-16T00:49:56;12.77;;;11.43;;
13463;SDS011;6804;48.774;9.174;2023-05-16T00:52:25;13.83;;;12.27;;
13463;SDS011;6804;48.774;9.174;2023-05-16T00:54:52;12.80;;;11.60;;
13463;SDS011;6804;48.774;9.174;2023-05-16T00:57:22;14.83;;;13.33;;
13463;SDS011;6804;48.774;9.174;2023-05-16T00:59:52;14.03;;;12.63;;
13463;SDS011;6804;48.774;9.174;2023-05-16T01:02:27;13.87;;;12.47;;
13463;SDS011;6804;48.774;9.174;2023-05-16T01:04:54;13.63;;;12.23;;
13463;SDS011;6804;48.774;9.174;2023-05-16T01:07:26;14.50;;;13.00;;
13463;SDS011;6804;48.774;9.174;2023-05-16T01:09:53;14.90;;;12.80;;
13463;SDS011;6804;48.774;9.174;2023-05-16T01:12:26;13.80;;;12.43;;
13463;SDS011;6804;48.774;9.174;2023-05-16T01:15:04;15.27;;;13.57;;
13463;SDS011;6804;48.774;9.174;2023-05-16T01:17:42;14.17;;;12.77;;
13463;SDS011;6804;48.774;9.174;2023-05-16T01:20:22;14.47;;;12.97;;
13463;SDS011;6804;48.774;9.174;2023-05-16T01:23:05;14.53;;;13.03;;
13463;SDS011;6804;48.774;9.174;2023-05-16T01:26:13;15.43;;;13.80;;
13463;SDS011;6804;48.774;9.174;2023-05-16T01:28:42;15.13;;;13.53;;
13463;SDS011;6804;48.774;9.174;2023-05-16T01:31:13;16.17;;;14.47;;
13463;SDS011;6804;48.774;9.174;2023-05-16T01:33:44;15.97;;;14.30;;
13463;SDS011;6804;48.774;9.174;2023-05-16T01:36:17;17.20;;;15.40;;
13463;SDS011;6804;48.774;9.174;2023-05-16T01:38:52;18.43;;;16.43;;
13463;SDS011;6804;48.774;9.174;2023-05-16T01:41:30;19.80;;;17.33;;
13463;SDS011;6804;48.774;9.174;2023-05-16T01:44:07;19.23;;;17.30;;
13463;SDS011;6804;48.774;9.174;2023-05-16T01:46:42;18.70;;;16.30;;
13463;SDS011;6804;48.774;9.174;2023-05-16T01:49:14;19.30;;;17.30;;
13463;SDS011;6804;48.774;9.174;2023-05-16T01:51:47;22.20;;;17.83;;
13463;SDS011;6804;48.774;9.174;2023-05-16T01:54:18;20.93;;;17.97;;
13463;SDS011;6804;48.774;9.174;2023-05-16T01:56:50;18.77;;;16.87;;
13463;SDS011;6804;48.774;9.174;2023-05-16T01:59:22;21.27;;;18.80;;
13463;SDS011;6804;48.774;9.174;2023-05-16T02:01:52;20.30;;;18.20;;
13463;SDS011;6804;48.774;9.174;2023-05-16T02:04:19;24.13;;;19.47;;
13463;SDS011;6804;48.774;9.174;2023-05-16T02:06:48;22.30;;;18.60;;
13463;SDS011;6804;48.774;9.174;2023-05-16T02:09:15;21.33;;;19.10;;
13463;SDS011;6804;48.774;9.174;2023-05-16T02:11:43;21.43;;;18.93;;
13463;SDS011;6804;48.774;9.174;2023-05-16T02:14:17;21.93;;;18.77;;
13463;SDS011;6804;48.774;9.174;2023-05-16T02:16:44;22.43;;;20.10;;
13463;SDS011;6804;48.774;9.174;2023-05-16T02:19:12;26.67;;;20.67;;
13463;SDS011;6804;48.774;9.174;2023-05-16T02:21:39;22.60;;;19.40;;
13463;SDS011;6804;48.774;9.174;2023-05-16T02:24:09;22.30;;;19.50;;
13463;SDS011;6804;48.774;9.174;2023-05-16T02:26:36;22.23;;;19.93;;
13463;SDS011;6804;48.774;9.174;2023-05-16T02:29:09;22.33;;;19.37;;
13463;SDS011;6804;48.774;9.174;2023-05-16T02:31:38;23.97;;;20.70;;
13463;SDS011;6804;48.774;9.174;2023-05-16T02:34:06;23.43;;;20.03;;
13463;SDS011;6804;48.774;9.174;2023-05-16T02:36:35;24.57;;;20.10;;
13463;SDS011;6804;48.774;9.174;2023-05-16T02:39:07;22.30;;;20.00;;
13463;SDS011;6804;48.774;9.174;2023-05-16T02:41:35;23.83;;;20.83;;
13463;SDS011;6804;48.774;9.174;2023-05-16T02:44:03;22.47;;;20.00;;
13463;SDS011;6804;48.774;9.174;2023-05-16T02:46:31;26.20;;;20.83;;
13463;SDS011;6804;48.774;9.174;2023-05-16T02:49:01;24.40;;;21.00;;
13463;SDS011;6804;48.774;9.174;2023-05-16T02:51:28;22.53;;;19.83;;
13463;SDS011;6804;48.774;9.174;2023-05-16T02:53:55;26.83;;;22.50;;
13463;SDS011;6804;48.774;9.174;2023-05-16T02:56:24;26.90;;;21.53;;
13463;SDS011;6804;48.774;9.174;2023-05-16T02:58:52;27.53;;;22.07;;
13463;SDS011;6804;48.774;9.174;2023-05-16T03:01:19;25.73;;;22.20;;
13463;SDS011;6804;48.774;9.174;2023-05-16T03:03:46;29.30;;;22.70;;
13463;SDS011;6804;48.774;9.174;2023-05-16T03:06:18;24.30;;;21.30;;
13463;SDS011;6804;48.774;9.174;2023-05-16T03:08:47;26.60;;;22.10;;
13463;SDS011;6804;48.774;9.174;2023-05-16T03:11:16;25.17;;;21.70;;
13463;SDS011;6804;48.774;9.174;2023-05-16T03:13:45;28.17;;;22.60;;
13463;SDS011;6804;48.774;9.174;2023-05-16T03:16:12;27.17;;;23.17;;
13463;SDS011;6804;48.774;9.174;2023-05-16T03:18:39;28.97;;;23.73;;
13463;SDS011;6804;48.774;9.174;2023-05-16T03:21:06;29.87;;;23.43;;
13463;SDS011;6804;48.774;9.174;2023-05-16T03:23:35;30.73;;;24.27;;
13463;SDS011;6804;48.774;9.174;2023-05-16T03:26:02;29.63;;;23.63;;
13463;SDS011;6804;48.774;9.174;2023-05-16T03:28:30;31.57;;;24.40;;
13463;SDS011;6804;48.774;9.174;2023-05-16T03:30:57;31.00;;;24.10;;
13463;SDS011;6804;48.774;9.174;2023-05-16T03:33:26;28.10;;;24.57;;
13463;SDS011;6804;48.774;9.174;2023-05-16T03:35:54;33.17;;;25.37;;
13463;SDS011;6804;48.774;9.174;2023-05-16T03:38:27;35.47;;;26.13;;
13463;SDS011;6804;48.774;9.174;2023-05-16T03:40:56;34.00;;;25.70;;
13463;SDS011;6804;48.774;9.174;2023-05-16T03:43:24;32.53;;;26.70;;
13463;SDS011;6804;48.774;9.174;2023-05-16T03:45:51;32.37;;;25.77;;
13463;SDS011;6804;48.774;9.174;2023-05-16T03:48:18;34.17;;;26.03;;
13463;SDS011;6804;48.774;9.174;2023-05-16T03:50:51;32.47;;;25.30;;
13463;SDS011;6804;48.774;9.174;2023-05-16T03:53:19;32.40;;;26.07;;
13463;SDS011;6804;48.774;9.174;2023-05-16T03:55:49;34.77;;;27.70;;
13463;SDS011;6804;48.774;9.174;2023-05-16T03:58:21;30.60;;;25.97;;
13463;SDS011;6804;48.774;9.174;2023-05-16T04:00:48;35.67;;;27.60;;
13463;SDS011;6804;48.774;9.174;2023-05-16T04:03:17;35.77;;;27.53;;
13463;SDS011;6804;48.774;9.174;2023-05-16T04:05:49;34.10;;;27.27;;
13463;SDS011;6804;48.774;9.174;2023-05-16T04:08:16;32.17;;;25.97;;
13463;SDS011;6804;48.774;9.174;2023-05-16T04:10:46;33.93;;;27.07;;
13463;SDS011;6804;48.774;9.174;2023-05-16T04:13:14;40.73;;;28.23;;
13463;SDS011;6804;48.774;9.174;2023-05-16T04:15:42;32.27;;;26.27;;
13463;SDS011;6804;48.774;9.174;2023-05-16T04:18:10;37.33;;;27.53;;
13463;SDS011;6804;48.774;9.174;2023-05-16T04:20:38;35.00;;;26.93;;
13463;SDS011;6804;48.774;9.174;2023-05-16T04:23:10;36.50;;;27.67;;
13463;SDS011;6804;48.774;9.174;2023-05-16T04:25:38;36.67;;;27.53;;
13463;SDS011;6804;48.774;9.174;2023-05-16T04:28:05;34.00;;;27.00;;
13463;SDS011;6804;48.774;9.174;2023-05-16T04:30:32;36.77;;;28.33;;
13463;SDS011;6804;48.774;9.174;2023-05-16T04:33:01;39.67;;;28.87;;
13463;SDS011;6804;48.774;9.174;2023-05-16T04:35:30;34.00;;;26.23;;
13463;SDS011;6804;48.774;9.174;2023-05-16T04:37:58;35.97;;;26.93;;
13463;SDS011;6804;48.774;9.174;2023-05-16T04:40:26;37.67;;;29.20;;
13463;SDS011;6804;48.774;9.174;2023-05-16T04:42:53;36.80;;;27.23;;
13463;SDS011;6804;48.774;9.174;2023-05-16T04:45:23;34.30;;;27.43;;
13463;SDS011;6804;48.774;9.174;2023-05-16T04:47:50;38.57;;;28.07;;
13463;SDS011;6804;48.774;9.174;2023-05-16T04:50:19;35.77;;;26.37;;
13463;SDS011;6804;48.774;9.174;2023-05-16T04:52:47;32.03;;;26.13;;
13463;SDS011;6804;48.774;9.174;2023-05-16T04:55:14;37.23;;;28.40;;
13463;SDS011;6804;48.774;9.174;2023-05-16T04:57:42;35.50;;;27.80;;
13463;SDS011;6804;48.774;9.174;2023-05-16T05:00:12;37.80;;;27.97;;
13463;SDS011;6804;48.774;9.174;2023-05-16T05:02:40;40.37;;;28.40;;
13463;SDS011;6804;48.774;9.174;2023-05-16T05:05:11;36.43;;;29.07;;
13463;SDS011;6804;48.774;9.174;2023-05-16T05:07:42;34.93;;;27.43;;
13463;SDS011;6804;48.774;9.174;2023-05-16T05:10:10;34.27;;;27.23;;
13463;SDS011;6804;48.774;9.174;2023-05-16T05:12:38;36.87;;;27.40;;
13463;SDS011;6804;48.774;9.174;2023-05-16T05:15:09;37.73;;;28.83;;
13463;SDS011;6804;48.774;9.174;2023-05-16T05:17:37;32.57;;;25.90;;
13463;SDS011;6804;48.774;9.174;2023-05-16T05:20:06;36.90;;;28.07;;
13463;SDS011;6804;48.774;9.174;2023-05-16T05:22:36;33.80;;;26.50;;
13463;SDS011;6804;48.774;9.174;2023-05-16T05:25:05;33.23;;;26.20;;
13463;SDS011;6804;48.774;9.174;2023-05-16T05:27:33;35.50;;;27.27;;
13463;SDS011;6804;48.774;9.174;2023-05-16T05:30:01;32.17;;;26.20;;
13463;SDS011;6804;48.774;9.174;2023-05-16T05:32:31;37.33;;;27.80;;
13463;SDS011;6804;48.774;9.174;2023-05-16T05:34:59;33.20;;;26.50;;
13463;SDS011;6804;48.774;9.174;2023-05-16T05:37:28;34.90;;;26.87;;
13463;SDS011;6804;48.774;9.174;2023-05-16T05:39:58;35.73;;;27.43;;
13463;SDS011;6804;48.774;9.174;2023-05-16T05:42:27;34.37;;;27.00;;
13463;SDS011;6804;48.774;9.174;2023-05-16T05:44:55;36.60;;;27.87;;
13463;SDS011;6804;48.774;9.174;2023-05-16T05:47:22;33.97;;;27.37;;
13463;SDS011;6804;48.774;9.174;2023-05-16T05:49:50;33.17;;;27.67;;
13463;SDS011;6804;48.774;9.174;2023-05-16T05:52:18;33.53;;;27.33;;
13463;SDS011;6804;48.774;9.174;2023-05-16T05:54:48;35.77;;;27.20;;
13463;SDS011;6804;48.774;9.174;2023-05-16T05:57:22;33.53;;;27.57;;
13463;SDS011;6804;48.774;9.174;2023-05-16T05:59:52;32.97;;;26.23;;
13463;SDS011;6804;48.774;9.174;2023-05-16T06:02:23;34.07;;;25.03;;
13463;SDS011;6804;48.774;9.174;2023-05-16T06:04:54;31.97;;;25.77;;
13463;SDS011;6804;48.774;9.174;2023-05-16T06:07:21;33.13;;;25.40;;
13463;SDS011;6804;48.774;9.174;2023-05-16T06:09:49;31.30;;;23.83;;
13463;SDS011;6804;48.774;9.174;2023-05-16T06:12:16;33.97;;;27.33;;
13463;SDS011;6804;48.774;9.174;2023-05-16T06:14:44;31.10;;;25.27;;
13463;SDS011;6804;48.774;9.174;2023-05-16T06:17:13;29.87;;;25.50;;
13463;SDS011;6804;48.774;9.174;2023-05-16T06:19:40;30.87;;;23.63;;
13463;SDS011;6804;48.774;9.174;2023-05-16T06:22:10;33.60;;;23.60;;
13463;SDS011;6804;48.774;9.174;2023-05-16T06:24:44;31.37;;;23.93;;
13463;SDS011;6804;48.774;9.174;2023-05-16T06:27:24;31.83;;;24.30;;
13463;SDS011;6804;48.774;9.174;2023-05-16T06:29:51;30.60;;;25.20;;
13463;SDS011;6804;48.774;9.174;2023-05-16T06:32:23;31.57;;;24.83;;
13463;SDS011;6804;48.774;9.174;2023-05-16T06:34:51;28.93;;;24.53;;
13463;SDS011;6804;48.774;9.174;2023-05-16T06:37:22;29.53;;;24.00;;
13463;SDS011;6804;48.774;9.174;2023-05-16T06:39:50;30.37;;;23.90;;
13463;SDS011;6804;48.774;9.174;2023-05-16T06:42:18;29.33;;;22.13;;
13463;SDS011;6804;48.774;9.174;2023-05-16T06:44:46;25.97;;;22.30;;
13463;SDS011;6804;48.774;9.174;2023-05-16T06:47:13;30.37;;;22.10;;
13463;SDS011;6804;48.774;9.174;2023-05-16T06:49:45;29.97;;;22.77;;
13463;SDS011;6804;48.774;9.174;2023-05-16T06:52:13;29.30;;;22.73;;
13463;SDS011;6804;48.774;9.174;2023-05-16T06:54:41;26.37;;;21.63;;
13463;SDS011;6804;48.774;9.174;2023-05-16T06:57:09;27.00;;;20.83;;
13463;SDS011;6804;48.774;9.174;2023-05-16T06:59:38;25.73;;;20.77;;
13463;SDS011;6804;48.774;9.174;2023-05-16T07:02:06;24.77;;;20.40;;
13463;SDS011;6804;48.774;9.174;2023-05-16T07:04:34;27.27;;;22.23;;
13463;SDS011;6804;48.774;9.174;2023-05-16T07:07:05;26.33;;;21.60;;
13463;SDS011;6804;48.774;9.174;2023-05-16T07:09:33;26.80;;;20.47;;
13463;SDS011;6804;48.774;9.174;2023-05-16T07:12:05;27.20;;;20.70;;
13463;SDS011;6804;48.774;9.174;2023-05-16T07:14:33;24.63;;;20.47;;
13463;SDS011;6804;48.774;9.174;2023-05-16T07:17:00;21.40;;;17.57;;
13463;SDS011;6804;48.774;9.174;2023-05-16T07:19:33;22.67;;;18.73;;
13463;SDS011;6804;48.774;9.174;2023-05-16T07:22:01;24.53;;;18.30;;
13463;SDS011;6804;48.774;9.174;2023-05-16T07:24:31;23.07;;;18.00;;
13463;SDS011;6804;48.774;9.174;2023-05-16T07:27:02;20.67;;;17.17;;
13463;SDS011;6804;48.774;9.174;2023-05-16T07:29:34;18.93;;;15.87;;
13463;SDS011;6804;48.774;9.174;2023-05-16T07:32:08;16.10;;;13.87;;
13463;SDS011;6804;48.774;9.174;2023-05-16T07:34:35;17.23;;;13.07;;
13463;SDS011;6804;48.774;9.174;2023-05-16T07:37:05;13.43;;;12.13;;
13463;SDS011;6804;48.774;9.174;2023-05-16T07:39:38;12.50;;;11.20;;
13463;SDS011;6804;48.774;9.174;2023-05-16T07:42:07;11.90;;;10.27;;
13463;SDS011;6804;48.774;9.174;2023-05-16T07:44:35;13.30;;;9.93;;
13463;SDS011;6804;48.774;9.174;2023-05-16T07:47:05;10.80;;;9.80;;
13463;SDS011;6804;48.774;9.174;2023-05-16T07:49:33;11.00;;;9.40;;
13463;SDS011;6804;48.774;9.174;2023-05-16T07:52:06;8.50;;;7.67;;
13463;SDS011;6804;48.774;9.174;2023-05-16T07:54:34;8.50;;;7.60;;
13463;SDS011;6804;48.774;9.174;2023-05-16T07:57:07;9.37;;;8.47;;
13463;SDS011;6804;48.774;9.174;2023-05-16T07:59:35;8.90;;;8.00;;
13463;SDS011;6804;48.774;9.174;2023-05-16T08:02:04;9.77;;;7.80;;
13463;SDS011;6804;48.774;9.174;2023-05-16T08:04:32;9.07;;;8.13;;
13463;SDS011;6804;48.774;9.174;2023-05-16T08:07:04;9.00;;;8.10;;
13463;SDS011;6804;48.774;9.174;2023-05-16T08:09:35;9.13;;;8.33;;
13463;SDS011;6804;48.774;9.174;2023-05-16T08:12:03;9.67;;;8.67;;
13463;SDS011;6804;48.774;9.174;2023-05-16T08:14:32;9.27;;;8.27;;
13463;SDS011;6804;48.774;9.174;2023-05-16T08:17:06;9.37;;;8.30;;
13463;SDS011;6804;48.774;9.174;2023-05-16T08:19:37;8.47;;;7.67;;
13463;SDS011;6804;48.774;9.174;2023-05-16T08:22:05;9.20;;;8.20;;
13463;SDS011;6804;48.774;9.174;2023-05-16T08:24:35;10.33;;;9.30;;
13463;SDS011;6804;48.774;9.174;2023-05-16T08:27:02;9.77;;;8.77;;
13463;SDS011;6804;48.774;9.174;2023-05-16T08:29:32;11.93;;;9.83;;
13463;SDS011;6804;48.774;9.174;2023-05-16T08:32:03;10.00;;;9.00;;
13463;SDS011;6804;48.774;9.174;2023-05-16T08:34:37;10.40;;;9.20;;
13463;SDS011;6804;48.774;9.174;2023-05-16T08:37:04;12.17;;;9.50;;
13463;SDS011;6804;48.774;9.174;2023-05-16T08:39:32;12.03;;;10.40;;
13463;SDS011;6804;48.774;9.174;2023-05-16T08:42:03;11.93;;;10.73;;
13463;SDS011;6804;48.774;9.174;2023-05-16T08:44:36;11.87;;;10.67;;
13463;SDS011;6804;48.774;9.174;2023-05-16T08:47:06;11.03;;;9.90;;
13463;SDS011;6804;48.774;9.174;2023-05-16T08:49:38;12.40;;;11.10;;
13463;SDS011;6804;48.774;9.174;2023-05-16T08:52:10;12.87;;;11.53;;
13463;SDS011;6804;48.774;9.174;2023-05-16T08:54:39;12.50;;;11.27;;
13463;SDS011;6804;48.774;9.174;2023-05-16T08:57:08;14.17;;;11.87;;
13463;SDS011;6804;48.774;9.174;2023-05-16T08:59:38;13.40;;;12.00;;
13463;SDS011;6804;48.774;9.174;2023-05-16T09:02:07;14.57;;;13.07;;
13463;SDS011;6804;48.774;9.174;2023-05-16T09:04:35;14.27;;;12.70;;
13463;SDS011;6804;48.774;9.174;2023-05-16T09:07:04;14.03;;;12.53;;
13463;SDS011;6804;48.774;9.174;2023-05-16T09:09:32;13.33;;;11.93;;
13463;SDS011;6804;48.774;9.174;2023-05-16T09:12:01;15.53;;;12.57;;
13463;SDS011;6804;48.774;9.174;2023-05-16T09:14:28;14.87;;;13.20;;
13463;SDS011;6804;48.774;9.174;2023-05-16T09:17:04;17.97;;;13.40;;
13463;SDS011;6804;48.774;9.174;2023-05-16T09:19:38;14.97;;;12.97;;
13463;SDS011;6804;48.774;9.174;2023-05-16T09:22:10;14.73;;;13.27;;
13463;SDS011;6804;48.774;9.174;2023-05-16T09:24:39;15.13;;;13.47;;
13463;SDS011;6804;48.774;9.174;2023-05-16T09:27:08;14.67;;;13.17;;
13463;SDS011;6804;48.774;9.174;2023-05-16T09:29:39;17.70;;;14.17;;
13463;SDS011;6804;48.774;9.174;2023-05-16T09:32:14;16.90;;;13.80;;
13463;SDS011;6804;48.774;9.174;2023-05-16T09:34:42;15.97;;;14.23;;
13463;SDS011;6804;48.774;9.174;2023-05-16T09:37:15;15.80;;;14.10;;
13463;SDS011;6804;48.774;9.174;2023-05-16T09:39:44;16.33;;;13.87;;
13463;SDS011;6804;48.774;9.174;2023-05-16T09:42:13;16.63;;;14.57;;
13463;SDS011;6804;48.774;9.174;2023-05-16T09:44:44;19.00;;;15.50;;
13463;SDS011;6804;48.774;9.174;2023-05-16T09:47:20;17.03;;;15.10;;
13463;SDS011;6804;48.774;9.174;2023-05-16T09:49:50;18.03;;;16.10;;
13463;SDS011;6804;48.774;9.174;2023-05-16T09:52:21;18.23;;;16.10;;
13463;SDS011;6804;48.774;9.174;2023-05-16T09:54:53;19.30;;;14.57;;
13463;SDS011;6804;48.774;9.174;2023-05-16T09:57:20;18.53;;;16.10;;
13463;SDS011;6804;48.774;9.174;2023-05-16T09:59:51;17.83;;;15.63;;
13463;SDS011;6804;48.774;9.174;2023-05-16T10:02:23;17.13;;;15.33;;
13463;SDS011;6804;48.774;9.174;2023-05-16T10:04:52;20.80;;;15.70;;
13463;SDS011;6804;48.774;9.174;2023-05-16T10:07:20;19.47;;;14.63;;
13463;SDS011;6804;48.774;9.174;2023-05-16T10:09:48;21.10;;;16.00;;
13463;SDS011;6804;48.774;9.174;2023-05-16T10:12:18;17.90;;;15.67;;
13463;SDS011;6804;48.774;9.174;2023-05-16T10:14:50;19.40;;;15.80;;
13463;SDS011;6804;48.774;9.174;2023-05-16T10:17:20;20.07;;;16.10;;
13463;SDS011;6804;48.774;9.174;2023-05-16T10:19:48;19.00;;;16.77;;
13463;SDS011;6804;48.774;9.174;2023-05-16T10:22:20;18.63;;;14.53;;
13463;SDS011;6804;48.774;9.174;2023-05-16T10:24:50;21.47;;;16.23;;
13463;SDS011;6804;48.774;9.174;2023-05-16T10:27:25;19.47;;;17.47;;
13463;SDS011;6804;48.774;9.174;2023-05-16T10:29:53;17.00;;;14.57;;
13463;SDS011;6804;48.774;9.174;2023-05-16T10:32:24;17.17;;;13.63;;
13463;SDS011;6804;48.774;9.174;2023-05-16T10:34:53;21.67;;;16.33;;
13463;SDS011;6804;48.774;9.174;2023-05-16T10:37:24;16.93;;;14.57;;
13463;SDS011;6804;48.774;9.174;2023-05-16T10:40:02;16.20;;;14.47;;
13463;SDS011;6804;48.774;9.174;2023-05-16T10:42:34;16.97;;;14.67;;
13463;SDS011;6804;48.774;9.174;2023-05-16T10:45:15;19.00;;;14.10;;
13463;SDS011;6804;48.774;9.174;2023-05-16T10:47:52;20.73;;;14.67;;
13463;SDS011;6804;48.774;9.174;2023-05-16T10:50:31;16.90;;;14.43;;
13463;SDS011;6804;48.774;9.174;2023-05-16T10:53:13;20.70;;;14.20;;
13463;SDS011;6804;48.774;9.174;2023-05-16T10:56:04;16.83;;;13.33;;
13463;SDS011;6804;48.774;9.174;2023-05-16T10:58:41;15.57;;;13.37;;
13463;SDS011;6804;48.774;9.174;2023-05-16T11:01:13;15.27;;;12.43;;
13463;SDS011;6804;48.774;9.174;2023-05-16T11:04:09;17.20;;;12.87;;
13463;SDS011;6804;48.774;9.174;2023-05-16T11:06:45;16.80;;;13.87;;
13463;SDS011;6804;48.774;9.174;2023-05-16T11:09:18;14.10;;;12.20;;
13463;SDS011;6804;48.774;9.174;2023-05-16T11:11:58;20.37;;;12.67;;
13463;SDS011;6804;48.774;9.174;2023-05-16T11:14:35;15.17;;;11.30;;
13463;SDS011;6804;48.774;9.174;2023-05-16T11:17:07;14.37;;;12.37;;
13463;SDS011;6804;48.774;9.174;2023-05-16T11:19:43;12.67;;;10.70;;
13463;SDS011;6804;48.774;9.174;2023-05-16T11:22:20;13.90;;;10.97;;
13463;SDS011;6804;48.774;9.174;2023-05-16T11:24:51;14.30;;;12.03;;
13463;SDS011;6804;48.774;9.174;2023-05-16T11:27:22;14.07;;;10.50;;
13463;SDS011;6804;48.774;9.174;2023-05-16T11:29:53;14.23;;;11.70;;
13463;SDS011;6804;48.774;9.174;2023-05-16T11:32:24;14.67;;;10.40;;
13463;SDS011;6804;48.774;9.174;2023-05-16T11:37:44;10.37;;;9.27;;
13463;SDS011;6804;48.774;9.174;2023-05-16T11:40:13;12.13;;;9.87;;
13463;SDS011;6804;48.774;9.174;2023-05-16T11:42:42;14.67;;;9.87;;
13463;SDS011;6804;48.774;9.174;2023-05-16T11:45:11;12.67;;;9.10;;
13463;SDS011;6804;48.774;9.174;2023-05-16T11:47:43;10.73;;;9.37;;
13463;SDS011;6804;48.774;9.174;2023-05-16T11:50:14;11.47;;;8.37;;
13463;SDS011;6804;48.774;9.174;2023-05-16T11:52:45;10.80;;;7.70;;
13463;SDS011;6804;48.774;9.174;2023-05-16T11:55:15;11.57;;;7.77;;
13463;SDS011;6804;48.774;9.174;2023-05-16T11:57:43;8.87;;;7.50;;
13463;SDS011;6804;48.774;9.174;2023-05-16T12:00:13;10.07;;;8.40;;
13463;SDS011;6804;48.774;9.174;2023-05-16T12:02:44;9.70;;;7.33;;
13463;SDS011;6804;48.774;9.174;2023-05-16T12:05:12;10.00;;;7.77;;
13463;SDS011;6804;48.774;9.174;2023-05-16T12:07:44;8.33;;;7.30;;
13463;SDS011;6804;48.774;9.174;2023-05-16T12:10:15;9.43;;;7.83;;
13463;SDS011;6804;48.774;9.174;2023-05-16T12:12:43;11.40;;;7.20;;
13463;SDS011;6804;48.774;9.174;2023-05-16T12:15:15;8.40;;;7.30;;
13463;SDS011;6804;48.774;9.174;2023-05-16T12:17:44;10.77;;;7.77;;
13463;SDS011;6804;48.774;9.174;2023-05-16T12:20:13;9.77;;;7.23;;
13463;SDS011;6804;48.774;9.174;2023-05-16T12:22:43;8.43;;;7.00;;
13463;SDS011;6804;48.774;9.174;2023-05-16T12:25:24;8.40;;;6.60;;
13463;SDS011;6804;48.774;9.174;2023-05-16T12:27:53;7.37;;;6.57;;
13463;SDS011;6804;48.774;9.174;2023-05-16T12:30:24;7.13;;;6.40;;
13463;SDS011;6804;48.774;9.174;2023-05-16T12:32:54;7.33;;;6.50;;
13463;SDS011;6804;48.774;9.174;2023-05-16T12:35:23;7.60;;;5.97;;
13463;SDS011;6804;48.774;9.174;2023-05-16T12:37:56;5.90;;;5.07;;
13463;SDS011;6804;48.774;9.174;2023-05-16T12:40:26;5.10;;;4.53;;
13463;SDS011;6804;48.774;9.174;2023-05-16T12:42:54;5.63;;;4.53;;
13463;SDS011;6804;48.774;9.174;2023-05-16T12:45:25;6.97;;;4.83;;
13463;SDS011;6804;48.774;9.174;2023-05-16T12:47:53;4.37;;;3.97;;
13463;SDS011;6804;48.774;9.174;2023-05-16T12:50:25;3.90;;;3.50;;
13463;SDS011;6804;48.774;9.174;2023-05-16T12:52:58;5.90;;;4.10;;
13463;SDS011;6804;48.774;9.174;2023-05-16T12:55:27;6.27;;;4.00;;
13463;SDS011;6804;48.774;9.174;2023-05-16T12:57:54;4.63;;;4.07;;
13463;SDS011;6804;48.774;9.174;2023-05-16T13:00:23;6.27;;;4.27;;
13463;SDS011;6804;48.774;9.174;2023-05-16T13:02:55;4.03;;;3.37;;
13463;SDS011;6804;48.774;9.174;2023-05-16T13:05:22;3.73;;;3.43;;
13463;SDS011;6804;48.774;9.174;2023-05-16T13:07:51;3.83;;;3.40;;
13463;SDS011;6804;48.774;9.174;2023-05-16T13:10:24;4.07;;;3.40;;
13463;SDS011;6804;48.774;9.174;2023-05-16T13:12:55;3.90;;;3.00;;
13463;SDS011;6804;48.774;9.174;2023-05-16T13:15:25;2.97;;;2.70;;
13463;SDS011;6804;48.774;9.174;2023-05-16T13:17:53;4.60;;;3.53;;
13463;SDS011;6804;48.774;9.174;2023-05-16T13:20:24;2.93;;;2.70;;
13463;SDS011;6804;48.774;9.174;2023-05-16T13:22:56;3.73;;;3.00;;
13463;SDS011;6804;48.774;9.174;2023-05-16T13:25:25;3.23;;;2.93;;
13463;SDS011;6804;48.774;9.174;2023-05-16T13:27:53;3.60;;;2.90;;
13463;SDS011;6804;48.774;9.174;2023-05-16T13:30:21;3.63;;;3.00;;
13463;SDS011;6804;48.774;9.174;2023-05-16T13:32:50;2.90;;;2.37;;
13463;SDS011;6804;48.774;9.174;2023-05-16T13:35:18;2.90;;;2.50;;
13463;SDS011;6804;48.774;9.174;2023-05-16T13:37:45;4.07;;;2.37;;
13463;SDS011;6804;48.774;9.174;2023-05-16T13:40:16;2.80;;;2.60;;
13463;SDS011;6804;48.774;9.174;2023-05-16T13:42:47;3.83;;;2.67;;
13463;SDS011;6804;48.774;9.174;2023-05-16T13:45:18;4.77;;;2.47;;
13463;SDS011;6804;48.774;9.174;2023-05-16T13:47:46;3.87;;;2.90;;
13463;SDS011;6804;48.774;9.174;2023-05-16T13:50:14;4.80;;;2.60;;
13463;SDS011;6804;48.774;9.174;2023-05-16T13:52:42;4.43;;;2.27;;
13463;SDS011;6804;48.774;9.174;2023-05-16T13:55:11;3.77;;;2.83;;
13463;SDS011;6804;48.774;9.174;2023-05-16T13:57:43;3.90;;;2.20;;
13463;SDS011;6804;48.774;9.174;2023-05-16T14:00:12;4.03;;;2.47;;
13463;SDS011;6804;48.774;9.174;2023-05-16T14:02:41;2.63;;;2.10;;
13463;SDS011;6804;48.774;9.174;2023-05-16T14:05:09;2.70;;;2.40;;
13463;SDS011;6804;48.774;9.174;2023-05-16T14:07:37;4.40;;;2.43;;
13463;SDS011;6804;48.774;9.174;2023-05-16T14:10:06;2.60;;;2.40;;
13463;SDS011;6804;48.774;9.174;2023-05-16T14:12:37;2.53;;;2.10;;
13463;SDS011;6804;48.774;9.174;2023-05-16T14:15:08;3.43;;;2.03;;
13463;SDS011;6804;48.774;9.174;2023-05-16T14:17:36;3.23;;;2.00;;
13463;SDS011;6804;48.774;9.174;2023-05-16T14:20:10;2.50;;;2.30;;
13463;SDS011;6804;48.774;9.174;2023-05-16T14:22:39;2.53;;;2.30;;
13463;SDS011;6804;48.774;9.174;2023-05-16T14:25:07;4.93;;;2.60;;
13463;SDS011;6804;48.774;9.174;2023-05-16T14:27:35;2.63;;;2.27;;
13463;SDS011;6804;48.774;9.174;2023-05-16T14:30:04;5.37;;;2.30;;
13463;SDS011;6804;48.774;9.174;2023-05-16T14:32:38;2.50;;;2.07;;
13463;SDS011;6804;48.774;9.174;2023-05-16T14:35:06;3.17;;;2.50;;
13463;SDS011;6804;48.774;9.174;2023-05-16T14:37:35;4.50;;;2.80;;
13463;SDS011;6804;48.774;9.174;2023-05-16T14:40:06;5.53;;;2.80;;
13463;SDS011;6804;48.774;9.174;2023-05-16T14:42:35;4.07;;;2.67;;
13463;SDS011;6804;48.774;9.174;2023-05-16T14:45:04;3.27;;;2.10;;
13463;SDS011;6804;48.774;9.174;2023-05-16T14:47:38;2.60;;;2.10;;
13463;SDS011;6804;48.774;9.174;2023-05-16T14:50:06;2.87;;;2.47;;
13463;SDS011;6804;48.774;9.174;2023-05-16T14:52:36;3.10;;;2.23;;
13463;SDS011;6804;48.774;9.174;2023-05-16T14:55:05;2.80;;;2.27;;
13463;SDS011;6804;48.774;9.174;2023-05-16T14:57:38;3.10;;;2.30;;
13463;SDS011;6804;48.774;9.174;2023-05-16T15:00:07;3.37;;;1.83;;
13463;SDS011;6804;48.774;9.174;2023-05-16T15:02:39;2.57;;;1.97;;